Time;durP1;ratioP1;P1;durP2;ratioP2;P2;SDS_P1;SDS_P2;PMS_P1;PMS_P2;Temp;Humidity;BMP_temperature;BMP_pressure;BME280_temperature;BME280_humidity;BME280_pressure;Samples;Min_cycle;Max_cycle;Signal;HPM_P1;HPM_P2
2021/03/05 00:01:23;;;;;;;21.95;13.23;;;;;;;;;;5088323;28;20032;-49
2021/03/05 00:03:48;;;;;;;16.05;14.02;;;;;;;;;;5088505;28;20032;-48
2021/03/05 00:06:14;;;;;;;22.20;17.23;;;;;;;;;;5088149;28;20093;-48
2021/03/05 00:08:39;;;;;;;21.90;15.82;;;;;;;;;;5088403;28;20032;-49
2021/03/05 00:11:04;;;;;;;21.75;13.98;;;;;;;;;;5087669;28;20038;-46
2021/03/05 00:13:30;;;;;;;23.35;12.52;;;;;;;;;;5087132;28;20381;-48
2021/03/05 00:15:56;;;;;;;16.05;12.98;;;;;;;;;;5088335;28;20285;-46
2021/03/05 00:18:21;;;;;;;19.55;12.80;;;;;;;;;;5088240;28;20519;-53
2021/03/05 00:20:48;;;;;;;22.83;13.50;;;;;;;;;;5088397;28;20059;-47
2021/03/05 00:23:14;;;;;;;18.23;12.88;;;;;;;;;;5088067;28;20404;-53
2021/03/05 00:25:39;;;;;;;21.90;13.65;;;;;;;;;;5087885;28;20032;-50
2021/03/05 00:28:05;;;;;;;18.33;11.70;;;;;;;;;;5087270;28;20088;-49
2021/03/05 00:30:30;;;;;;;20.77;14.10;;;;;;;;;;5087935;28;20111;-49
2021/03/05 00:32:56;;;;;;;26.88;16.42;;;;;;;;;;5088147;28;20024;-52
2021/03/05 00:35:21;;;;;;;18.83;13.80;;;;;;;;;;5088261;28;20452;-45
2021/03/05 00:37:46;;;;;;;18.48;14.57;;;;;;;;;;5088090;28;20028;-47
2021/03/05 00:40:14;;;;;;;17.27;12.10;;;;;;;;;;5087679;28;20067;-51
2021/03/05 00:42:40;;;;;;;11.38;9.05;;;;;;;;;;5087699;28;20050;-55
2021/03/05 00:45:06;;;;;;;12.32;9.45;;;;;;;;;;5085723;28;20036;-50
2021/03/05 00:47:32;;;;;;;20.85;10.63;;;;;;;;;;5087979;28;20380;-48
2021/03/05 00:49:57;;;;;;;28.35;16.05;;;;;;;;;;5087902;28;20441;-50
2021/03/05 00:52:22;;;;;;;26.20;14.45;;;;;;;;;;5087918;28;20369;-48
2021/03/05 00:54:48;;;;;;;18.90;13.00;;;;;;;;;;5087763;28;20716;-54
2021/03/05 00:57:13;;;;;;;32.90;14.07;;;;;;;;;;5087355;28;20028;-49
2021/03/05 00:59:38;;;;;;;13.75;11.60;;;;;;;;;;5085313;28;20385;-46
2021/03/05 01:02:04;;;;;;;12.88;11.57;;;;;;;;;;5090201;28;20040;-56
2021/03/05 01:04:29;;;;;;;28.75;13.43;;;;;;;;;;5090769;28;20512;-45
2021/03/05 01:06:54;;;;;;;11.18;10.05;;;;;;;;;;5090264;28;20119;-46
2021/03/05 01:09:20;;;;;;;21.25;11.75;;;;;;;;;;5090732;28;20036;-50
2021/03/05 01:11:46;;;;;;;10.82;9.35;;;;;;;;;;5090524;28;20024;-50
2021/03/05 01:14:11;;;;;;;15.60;9.15;;;;;;;;;;5089756;28;20027;-50
2021/03/05 01:16:36;;;;;;;15.73;12.00;;;;;;;;;;5090301;28;20055;-48
2021/03/05 01:19:04;;;;;;;26.13;13.50;;;;;;;;;;5089678;28;20078;-48
2021/03/05 01:21:29;;;;;;;29.20;11.82;;;;;;;;;;5090538;28;20027;-48
2021/03/05 01:23:57;;;;;;;13.00;11.65;;;;;;;;;;5090191;28;20381;-49
2021/03/05 01:26:23;;;;;;;20.35;15.98;;;;;;;;;;5089847;28;20028;-45
2021/03/05 01:28:48;;;;;;;25.38;19.35;;;;;;;;;;5090074;28;20077;-48
2021/03/05 01:31:14;;;;;;;19.30;17.40;;;;;;;;;;5090619;28;20028;-47
2021/03/05 01:33:39;;;;;;;21.95;14.68;;;;;;;;;;5090224;28;20032;-45
2021/03/05 01:36:05;;;;;;;35.17;21.83;;;;;;;;;;5089486;28;20032;-47
2021/03/05 01:38:30;;;;;;;35.15;20.58;;;;;;;;;;5090220;28;20060;-50
2021/03/05 01:40:55;;;;;;;36.58;20.73;;;;;;;;;;5093383;28;20043;-44
2021/03/05 01:43:21;;;;;;;33.38;22.40;;;;;;;;;;5094792;28;20038;-43
2021/03/05 01:45:46;;;;;;;30.05;21.42;;;;;;;;;;5096507;28;20550;-52
2021/03/05 01:48:13;;;;;;;31.75;21.92;;;;;;;;;;5096218;28;20024;-44
2021/03/05 01:50:52;;;;;;;33.92;21.42;;;;;;;;;;5096532;28;20031;-44
2021/03/05 01:53:18;;;;;;;24.02;17.08;;;;;;;;;;5095923;28;20016;-47
2021/03/05 01:55:43;;;;;;;30.70;19.35;;;;;;;;;;5096441;28;20020;-45
2021/03/05 01:58:08;;;;;;;21.23;17.40;;;;;;;;;;5094401;28;20038;-46
2021/03/05 02:00:44;;;;;;;23.98;20.27;;;;;;;;;;5096908;28;20028;-54
2021/03/05 02:03:09;;;;;;;31.08;22.75;;;;;;;;;;5096252;28;20050;-49
2021/03/05 02:05:36;;;;;;;52.30;29.45;;;;;;;;;;5096429;28;20060;-48
2021/03/05 02:08:01;;;;;;;41.15;24.25;;;;;;;;;;5096003;28;20027;-53
2021/03/05 02:10:27;;;;;;;24.20;17.63;;;;;;;;;;5096951;28;20024;-55
2021/03/05 02:12:52;;;;;;;26.38;18.20;;;;;;;;;;5096299;28;20382;-46
2021/03/05 02:15:18;;;;;;;15.05;12.95;;;;;;;;;;5097049;28;20067;-50
2021/03/05 02:17:51;;;;;;;18.80;13.32;;;;;;;;;;5096477;28;20016;-49
2021/03/05 02:20:19;;;;;;;13.30;12.00;;;;;;;;;;5096481;28;20056;-50
2021/03/05 02:23:02;;;;;;;12.52;11.25;;;;;;;;;;5096420;28;20024;-47
2021/03/05 02:25:54;;;;;;;17.88;12.90;;;;;;;;;;5096481;28;20040;-49
2021/03/05 02:28:28;;;;;;;12.73;11.45;;;;;;;;;;5064272;28;20496;-48
2021/03/05 02:30:57;;;;;;;18.83;10.40;;;;;;;;;;5096312;28;20396;-45
2021/03/05 02:33:58;;;;;;;19.88;13.18;;;;;;;;;;5096473;28;20039;-45
2021/03/05 02:36:26;;;;;;;15.80;14.05;;;;;;;;;;5013847;28;20030;-45
2021/03/05 02:39:10;;;;;;;16.00;13.70;;;;;;;;;;5080152;28;20530;-46
2021/03/05 02:41:36;;;;;;;28.42;16.33;;;;;;;;;;5090372;28;20035;-45
2021/03/05 02:44:02;;;;;;;36.03;14.65;;;;;;;;;;5095918;28;20063;-49
2021/03/05 02:46:28;;;;;;;17.98;14.52;;;;;;;;;;5096145;28;20549;-46
2021/03/05 02:48:57;;;;;;;20.83;14.18;;;;;;;;;;5096041;28;20032;-47
2021/03/05 02:51:22;;;;;;;19.75;15.00;;;;;;;;;;5095497;28;20424;-49
2021/03/05 02:53:49;;;;;;;30.42;17.95;;;;;;;;;;5092022;28;20553;-52
2021/03/05 02:56:16;;;;;;;24.15;16.48;;;;;;;;;;5092832;28;20060;-50
2021/03/05 02:58:43;;;;;;;26.08;16.30;;;;;;;;;;5092795;28;20027;-48
2021/03/05 03:01:10;;;;;;;41.92;16.98;;;;;;;;;;5092669;28;20031;-49
2021/03/05 03:03:37;;;;;;;24.90;16.80;;;;;;;;;;5092844;28;20035;-46
2021/03/05 03:06:05;;;;;;;25.38;15.70;;;;;;;;;;5092652;28;20494;-47
2021/03/05 03:08:30;;;;;;;21.25;13.52;;;;;;;;;;5092099;28;20070;-53
2021/03/05 03:10:56;;;;;;;15.32;13.05;;;;;;;;;;5092427;28;20670;-48
2021/03/05 03:13:21;;;;;;;16.33;12.20;;;;;;;;;;5092201;28;20054;-44
2021/03/05 03:15:47;;;;;;;14.77;10.07;;;;;;;;;;5092372;28;20036;-51
2021/03/05 03:18:13;;;;;;;16.08;11.20;;;;;;;;;;5092005;28;20063;-47
2021/03/05 03:20:40;;;;;;;13.77;11.70;;;;;;;;;;5092349;28;20462;-52
2021/03/05 03:23:05;;;;;;;21.77;13.20;;;;;;;;;;5091976;28;20096;-44
2021/03/05 03:25:31;;;;;;;16.13;11.93;;;;;;;;;;5092160;28;20453;-46
2021/03/05 03:27:56;;;;;;;23.25;13.07;;;;;;;;;;5092451;28;20041;-53
2021/03/05 03:30:23;;;;;;;29.65;14.48;;;;;;;;;;5092221;28;20028;-45
2021/03/05 03:32:48;;;;;;;18.77;16.65;;;;;;;;;;5092432;28;20074;-47
2021/03/05 03:35:14;;;;;;;25.45;14.15;;;;;;;;;;5091721;28;20020;-44
2021/03/05 03:37:41;;;;;;;26.60;15.07;;;;;;;;;;5091313;28;20042;-54
2021/03/05 03:40:08;;;;;;;28.00;14.68;;;;;;;;;;5091726;28;20027;-47
2021/03/05 03:42:33;;;;;;;20.60;16.13;;;;;;;;;;5090920;28;20503;-53
2021/03/05 03:44:58;;;;;;;21.50;12.93;;;;;;;;;;5091778;28;20024;-45
2021/03/05 03:47:24;;;;;;;34.33;14.85;;;;;;;;;;5091788;28;20127;-45
2021/03/05 03:49:56;;;;;;;15.20;13.05;;;;;;;;;;5091841;28;20099;-49
2021/03/05 03:52:31;;;;;;;13.82;11.02;;;;;;;;;;5091812;28;20028;-47
2021/03/05 03:54:57;;;;;;;12.93;9.60;;;;;;;;;;5091849;28;20035;-53
2021/03/05 03:57:23;;;;;;;28.83;14.35;;;;;;;;;;5091972;28;20073;-45
2021/03/05 03:59:49;;;;;;;17.60;13.20;;;;;;;;;;5090829;28;20690;-51
2021/03/05 04:02:15;;;;;;;14.82;12.02;;;;;;;;;;5091507;28;20028;-45
2021/03/05 04:04:41;;;;;;;17.05;12.07;;;;;;;;;;5091275;28;20065;-50
2021/03/05 04:07:07;;;;;;;12.45;10.48;;;;;;;;;;5091617;28;20032;-47
2021/03/05 04:09:34;;;;;;;12.95;10.40;;;;;;;;;;5091462;28;20075;-53
2021/03/05 04:11:59;;;;;;;13.70;11.70;;;;;;;;;;5091251;28;20060;-48
2021/03/05 04:14:25;;;;;;;13.77;10.90;;;;;;;;;;5091653;28;20047;-46
2021/03/05 04:16:57;;;;;;;16.70;10.85;;;;;;;;;;5090200;28;20468;-48
2021/03/05 04:19:22;;;;;;;;;;;;;;;;;;5091337;28;20052;-49
2021/03/05 04:21:47;;;;;;;24.25;11.35;;;;;;;;;;5091312;28;20041;-50
2021/03/05 04:24:13;;;;;;;14.02;12.02;;;;;;;;;;5091008;28;20063;-52
2021/03/05 04:26:38;;;;;;;20.33;14.25;;;;;;;;;;5091061;28;20044;-44
2021/03/05 04:29:04;;;;;;;26.10;13.65;;;;;;;;;;5090789;28;20334;-47
2021/03/05 04:31:29;;;;;;;25.15;17.15;;;;;;;;;;5091113;28;20032;-46
2021/03/05 04:33:54;;;;;;;20.02;13.63;;;;;;;;;;5090544;28;20024;-50
2021/03/05 04:36:20;;;;;;;23.52;11.30;;;;;;;;;;5090810;28;20028;-45
2021/03/05 04:38:45;;;;;;;21.13;12.63;;;;;;;;;;5090687;28;20478;-53
2021/03/05 04:41:10;;;;;;;15.40;11.75;;;;;;;;;;5090720;28;20039;-49
2021/03/05 04:43:36;;;;;;;23.80;12.60;;;;;;;;;;5090709;28;20039;-51
2021/03/05 04:46:01;;;;;;;19.67;12.68;;;;;;;;;;5090457;28;20105;-47
2021/03/05 04:48:26;;;;;;;16.02;12.43;;;;;;;;;;5090467;28;20024;-45
2021/03/05 04:50:52;;;;;;;13.63;12.02;;;;;;;;;;5090816;28;20028;-52
2021/03/05 04:53:17;;;;;;;15.63;10.57;;;;;;;;;;5090285;28;20020;-45
2021/03/05 04:55:42;;;;;;;15.45;11.00;;;;;;;;;;5090339;28;20158;-44
2021/03/05 04:58:08;;;;;;;18.60;12.45;;;;;;;;;;5090271;28;20055;-43
2021/03/05 05:00:33;;;;;;;14.48;11.32;;;;;;;;;;5089176;28;20131;-49
2021/03/05 05:02:58;;;;;;;17.20;12.35;;;;;;;;;;5089990;28;20028;-44
2021/03/05 05:05:24;;;;;;;14.02;12.20;;;;;;;;;;5090480;28;20093;-46
2021/03/05 05:07:49;;;;;;;23.38;9.98;;;;;;;;;;5090137;28;20023;-49
2021/03/05 05:10:15;;;;;;;17.42;12.55;;;;;;;;;;5090550;28;20028;-49
2021/03/05 05:12:41;;;;;;;15.27;8.77;;;;;;;;;;5090101;28;20784;-44
2021/03/05 05:15:07;;;;;;;17.42;11.32;;;;;;;;;;5089434;28;20042;-49
2021/03/05 05:17:32;;;;;;;27.33;11.50;;;;;;;;;;5089919;28;20030;-47
2021/03/05 05:19:57;;;;;;;15.73;9.85;;;;;;;;;;5089936;28;20048;-47
2021/03/05 05:22:23;;;;;;;14.63;10.23;;;;;;;;;;5090077;28;20028;-44
2021/03/05 05:24:48;;;;;;;15.07;9.20;;;;;;;;;;5089884;28;20071;-47
2021/03/05 05:27:13;;;;;;;11.68;10.23;;;;;;;;;;5090337;28;20032;-47
2021/03/05 05:29:39;;;;;;;13.23;9.63;;;;;;;;;;5090091;28;20024;-45
2021/03/05 05:32:04;;;;;;;12.38;10.18;;;;;;;;;;5089214;28;20533;-45
2021/03/05 05:34:29;;;;;;;15.80;10.07;;;;;;;;;;5089947;28;20073;-45
2021/03/05 05:36:55;;;;;;;19.38;9.60;;;;;;;;;;5090267;28;20074;-45
2021/03/05 05:39:20;;;;;;;11.40;9.05;;;;;;;;;;5090029;28;20030;-43
2021/03/05 05:41:45;;;;;;;18.10;11.05;;;;;;;;;;5089583;28;20024;-49
2021/03/05 05:44:11;;;;;;;23.88;11.98;;;;;;;;;;5089706;28;20063;-46
2021/03/05 05:46:38;;;;;;;17.75;10.05;;;;;;;;;;5089498;28;20378;-49
2021/03/05 05:49:03;;;;;;;11.65;9.90;;;;;;;;;;5089553;28;20058;-50
2021/03/05 05:51:32;;;;;;;12.40;11.05;;;;;;;;;;5088994;28;20028;-51
2021/03/05 05:53:59;;;;;;;19.75;13.00;;;;;;;;;;5089755;28;20410;-46
2021/03/05 05:56:25;;;;;;;27.50;17.95;;;;;;;;;;5089246;28;20031;-43
2021/03/05 05:58:51;;;;;;;22.70;10.70;;;;;;;;;;5089754;28;20115;-43
2021/03/05 06:01:16;;;;;;;20.33;10.43;;;;;;;;;;5089751;28;20131;-46
2021/03/05 06:03:41;;;;;;;15.27;11.45;;;;;;;;;;5090128;28;20024;-43
2021/03/05 06:06:07;;;;;;;18.15;12.60;;;;;;;;;;5089374;28;20472;-50
2021/03/05 06:08:33;;;;;;;12.85;10.90;;;;;;;;;;5089811;28;20449;-47
2021/03/05 06:10:59;;;;;;;20.60;11.90;;;;;;;;;;5089403;28;20070;-45
2021/03/05 06:13:25;;;;;;;15.18;12.95;;;;;;;;;;5089697;28;20051;-46
2021/03/05 06:16:09;;;;;;;21.15;13.77;;;;;;;;;;5089751;28;20036;-43
2021/03/05 06:18:34;;;;;;;16.73;13.15;;;;;;;;;;5089457;28;20102;-45
2021/03/05 06:20:59;;;;;;;30.33;14.52;;;;;;;;;;5089549;28;20071;-43
2021/03/05 06:23:24;;;;;;;26.60;16.08;;;;;;;;;;5089214;28;20491;-42
2021/03/05 06:25:57;;;;;;;25.10;16.60;;;;;;;;;;5089199;28;20036;-44
2021/03/05 06:28:23;;;;;;;15.48;12.43;;;;;;;;;;5093090;28;20020;-47
2021/03/05 06:30:48;;;;;;;17.20;11.95;;;;;;;;;;5093053;28;20032;-45
2021/03/05 06:33:23;;;;;;;19.25;12.27;;;;;;;;;;5092482;28;20032;-45
2021/03/05 06:35:49;;;;;;;19.90;10.02;;;;;;;;;;5093196;28;20032;-46
2021/03/05 06:38:34;;;;;;;17.23;13.93;;;;;;;;;;5091631;28;20376;-47
2021/03/05 06:41:13;;;;;;;20.00;11.10;;;;;;;;;;5078174;28;20055;-47
2021/03/05 06:43:48;;;;;;;28.55;12.90;;;;;;;;;;5089040;28;20499;-45
2021/03/05 06:46:32;;;;;;;15.10;11.75;;;;;;;;;;5092747;28;20047;-43
2021/03/05 06:48:59;;;;;;;16.92;11.15;;;;;;;;;;5092797;28;20031;-43
2021/03/05 06:51:24;;;;;;;11.40;9.65;;;;;;;;;;5092304;28;20106;-49
2021/03/05 06:54:00;;;;;;;27.08;13.82;;;;;;;;;;5092631;28;20457;-45
2021/03/05 06:56:26;;;;;;;13.77;11.77;;;;;;;;;;5092953;28;20040;-47
2021/03/05 06:58:58;;;;;;;18.10;15.23;;;;;;;;;;5092642;28;20024;-49
2021/03/05 07:01:23;;;;;;;17.38;11.50;;;;;;;;;;5093139;28;20059;-45
2021/03/05 07:04:02;;;;;;;21.92;13.48;;;;;;;;;;5092628;28;20060;-48
2021/03/05 07:06:28;;;;;;;14.82;12.35;;;;;;;;;;5092712;28;20093;-42
2021/03/05 07:08:53;;;;;;;15.75;11.65;;;;;;;;;;5092572;28;20044;-47
2021/03/05 07:11:32;;;;;;;21.13;12.85;;;;;;;;;;5092040;28;20491;-49
2021/03/05 07:13:57;;;;;;;80.60;72.07;;;;;;;;;;5091753;28;20476;-49
2021/03/05 07:16:23;;;;;;;80.00;69.03;;;;;;;;;;5092308;28;20034;-46
2021/03/05 07:18:48;;;;;;;147.73;111.95;;;;;;;;;;5091667;28;20020;-51
2021/03/05 07:21:18;;;;;;;159.30;113.65;;;;;;;;;;5091576;28;20028;-47
2021/03/05 07:23:44;;;;;;;95.07;76.07;;;;;;;;;;5092528;28;20072;-50
2021/03/05 07:26:09;;;;;;;70.05;57.38;;;;;;;;;;5092180;28;20064;-47
2021/03/05 07:28:35;;;;;;;98.85;61.65;;;;;;;;;;5091485;28;20520;-48
2021/03/05 07:31:02;;;;;;;78.85;59.35;;;;;;;;;;5090624;28;20388;-49
2021/03/05 07:33:28;;;;;;;89.78;61.72;;;;;;;;;;5091806;28;20111;-50
2021/03/05 07:35:57;;;;;;;92.25;64.07;;;;;;;;;;5092135;28;20100;-46
2021/03/05 07:38:23;;;;;;;75.57;59.90;;;;;;;;;;5091308;28;20118;-53
2021/03/05 07:40:49;;;;;;;79.40;57.22;;;;;;;;;;5091482;28;20024;-47
2021/03/05 07:43:14;;;;;;;65.97;53.53;;;;;;;;;;5091507;28;20078;-46
2021/03/05 07:45:40;;;;;;;63.40;50.17;;;;;;;;;;5090586;28;20078;-44
2021/03/05 07:48:09;;;;;;;79.25;54.15;;;;;;;;;;5091236;28;20028;-50
2021/03/05 07:50:34;;;;;;;73.25;52.35;;;;;;;;;;5092160;28;20028;-48
2021/03/05 07:52:59;;;;;;;64.28;48.00;;;;;;;;;;5091349;28;20057;-49
2021/03/05 07:55:34;;;;;;;84.45;51.20;;;;;;;;;;5091789;28;20130;-44
2021/03/05 07:57:59;;;;;;;67.18;51.30;;;;;;;;;;5091664;28;20058;-42
2021/03/05 08:00:43;;;;;;;68.53;51.40;;;;;;;;;;5091435;28;20074;-44
2021/03/05 08:03:09;;;;;;;57.92;47.08;;;;;;;;;;5090574;28;20024;-45
2021/03/05 08:05:37;;;;;;;58.58;45.95;;;;;;;;;;5091065;28;20036;-53
2021/03/05 08:08:06;;;;;;;55.92;43.88;;;;;;;;;;5091218;28;20024;-53
2021/03/05 08:10:39;;;;;;;56.42;41.35;;;;;;;;;;5091238;28;20068;-51
2021/03/05 08:13:24;;;;;;;57.15;37.53;;;;;;;;;;5091195;28;20020;-51
2021/03/05 08:15:49;;;;;;;53.65;36.80;;;;;;;;;;5090762;28;20036;-47
2021/03/05 08:18:19;;;;;;;39.65;35.00;;;;;;;;;;5089620;28;20051;-46
2021/03/05 08:20:46;;;;;;;49.25;30.38;;;;;;;;;;5090529;28;20108;-55
2021/03/05 08:23:14;;;;;;;33.83;28.42;;;;;;;;;;5090590;28;20024;-46
2021/03/05 08:25:49;;;;;;;39.42;30.98;;;;;;;;;;5091070;28;20377;-45
2021/03/05 08:28:42;;;;;;;30.63;25.98;;;;;;;;;;5091089;28;20349;-45
2021/03/05 08:31:27;;;;;;;40.00;29.75;;;;;;;;;;5087273;28;20044;-43
2021/03/05 08:33:52;;;;;;;51.22;32.50;;;;;;;;;;5076426;28;20036;-46
2021/03/05 08:36:38;;;;;;;39.33;25.95;;;;;;;;;;5090702;28;20069;-48
2021/03/05 08:39:25;;;;;;;30.85;27.65;;;;;;;;;;5090639;28;20095;-47
2021/03/05 08:42:10;;;;;;;30.73;22.40;;;;;;;;;;5090455;28;20039;-46
2021/03/05 08:44:35;;;;;;;23.77;19.42;;;;;;;;;;5090915;28;20039;-49
2021/03/05 08:47:05;;;;;;;20.67;15.88;;;;;;;;;;5090780;28;20032;-50
2021/03/05 08:49:30;;;;;;;22.02;17.05;;;;;;;;;;5090316;28;20020;-51
2021/03/05 08:51:56;;;;;;;43.45;18.83;;;;;;;;;;5088851;28;20051;-49
2021/03/05 08:54:21;;;;;;;33.72;18.95;;;;;;;;;;5090550;28;20107;-49
2021/03/05 08:56:52;;;;;;;32.17;18.85;;;;;;;;;;5090565;28;20040;-49
2021/03/05 08:59:18;;;;;;;18.83;13.48;;;;;;;;;;5090397;28;20046;-50
2021/03/05 09:01:43;;;;;;;25.85;16.00;;;;;;;;;;5090529;28;20031;-46
2021/03/05 09:04:09;;;;;;;24.33;20.00;;;;;;;;;;5090185;28;20024;-51
2021/03/05 09:06:35;;;;;;;25.60;21.83;;;;;;;;;;5090431;28;20085;-44
2021/03/05 09:09:10;;;;;;;18.10;14.70;;;;;;;;;;5090092;28;20032;-51
2021/03/05 09:11:35;;;;;;;28.25;15.35;;;;;;;;;;5089972;28;20032;-46
2021/03/05 09:14:18;;;;;;;15.68;13.88;;;;;;;;;;5090083;28;20024;-49
2021/03/05 09:16:53;;;;;;;18.70;11.25;;;;;;;;;;5090208;28;20028;-49
2021/03/05 09:19:28;;;;;;;19.33;12.07;;;;;;;;;;5089838;28;20512;-45
2021/03/05 09:22:07;;;;;;;24.85;13.43;;;;;;;;;;5090138;28;20051;-45
2021/03/05 09:24:51;;;;;;;18.00;11.95;;;;;;;;;;5090696;28;20140;-45
2021/03/05 09:27:17;;;;;;;18.75;11.63;;;;;;;;;;5089996;28;20064;-47
2021/03/05 09:29:42;;;;;;;8.50;6.95;;;;;;;;;;5089951;28;20025;-44
2021/03/05 09:32:07;;;;;;;14.77;9.65;;;;;;;;;;5089059;28;20530;-52
2021/03/05 09:34:33;;;;;;;19.27;8.70;;;;;;;;;;5090054;28;20032;-53
2021/03/05 09:36:58;;;;;;;9.82;8.32;;;;;;;;;;5089614;28;20392;-50
2021/03/05 09:39:23;;;;;;;17.05;10.68;;;;;;;;;;5089299;28;20452;-50
2021/03/05 09:41:49;;;;;;;16.73;10.75;;;;;;;;;;5089827;28;20024;-49
2021/03/05 09:44:14;;;;;;;20.23;7.90;;;;;;;;;;5089595;28;20031;-46
2021/03/05 09:46:40;;;;;;;8.57;7.75;;;;;;;;;;5089911;28;20412;-45
2021/03/05 09:49:22;;;;;;;14.13;8.30;;;;;;;;;;5089235;28;20026;-53
2021/03/05 09:51:47;;;;;;;16.88;11.80;;;;;;;;;;5089572;28;20032;-47
2021/03/05 09:54:13;;;;;;;17.58;10.38;;;;;;;;;;5089815;28;20082;-47
2021/03/05 09:56:42;;;;;;;14.63;9.68;;;;;;;;;;5089760;28;20035;-50
2021/03/05 09:59:07;;;;;;;10.25;9.00;;;;;;;;;;5089490;28;20782;-46
2021/03/05 10:01:37;;;;;;;15.85;10.30;;;;;;;;;;5090326;28;20098;-50
2021/03/05 10:04:02;;;;;;;9.50;7.32;;;;;;;;;;5093447;28;20107;-47
2021/03/05 10:06:29;;;;;;;12.23;8.70;;;;;;;;;;5092830;28;20126;-49
2021/03/05 10:09:04;;;;;;;13.20;8.75;;;;;;;;;;5093545;28;20031;-46
2021/03/05 10:11:31;;;;;;;12.27;9.57;;;;;;;;;;5093508;28;20028;-50
2021/03/05 10:13:56;;;;;;;13.98;11.80;;;;;;;;;;5093612;28;20020;-44
2021/03/05 10:16:32;;;;;;;16.83;10.38;;;;;;;;;;5093530;28;20530;-46
2021/03/05 10:19:14;;;;;;;14.43;10.20;;;;;;;;;;5093056;28;20078;-51
2021/03/05 10:21:41;;;;;;;15.60;10.68;;;;;;;;;;5092258;28;20059;-47
2021/03/05 10:24:10;;;;;;;24.98;12.75;;;;;;;;;;5093041;28;20032;-45
2021/03/05 10:26:36;;;;;;;18.30;14.10;;;;;;;;;;5093436;28;20118;-44
2021/03/05 10:29:03;;;;;;;20.73;11.15;;;;;;;;;;5093116;28;20095;-48
2021/03/05 10:31:38;;;;;;;18.85;10.43;;;;;;;;;;5092921;28;20028;-46
2021/03/05 10:34:04;;;;;;;21.95;11.07;;;;;;;;;;5092951;28;20564;-46
2021/03/05 10:36:29;;;;;;;19.40;12.18;;;;;;;;;;5093436;28;20542;-46
2021/03/05 10:38:54;;;;;;;16.13;11.40;;;;;;;;;;5092796;28;20111;-47
2021/03/05 10:41:19;;;;;;;14.38;9.48;;;;;;;;;;5093105;28;20031;-44
2021/03/05 10:43:45;;;;;;;14.98;13.45;;;;;;;;;;5092933;28;20372;-47
2021/03/05 10:46:10;;;;;;;15.27;9.90;;;;;;;;;;5093119;28;20530;-45
2021/03/05 10:48:35;;;;;;;13.70;7.88;;;;;;;;;;5093069;28;20047;-45
2021/03/05 10:51:01;;;;;;;16.77;9.40;;;;;;;;;;5092557;28;20050;-46
2021/03/05 10:53:26;;;;;;;19.73;9.15;;;;;;;;;;5092954;28;20028;-49
2021/03/05 10:55:51;;;;;;;16.45;8.30;;;;;;;;;;5092581;28;20024;-42
2021/03/05 10:58:18;;;;;;;8.10;6.28;;;;;;;;;;5092617;28;20020;-48
2021/03/05 11:00:44;;;;;;;16.48;7.78;;;;;;;;;;5092030;28;20035;-47
2021/03/05 11:03:09;;;;;;;14.25;7.07;;;;;;;;;;5089992;28;20020;-49
2021/03/05 11:05:34;;;;;;;10.07;7.65;;;;;;;;;;5092104;28;20483;-47
2021/03/05 11:08:00;;;;;;;7.63;6.00;;;;;;;;;;5091750;28;20026;-46
2021/03/05 11:10:25;;;;;;;5.97;5.38;;;;;;;;;;5092319;28;20433;-48
2021/03/05 11:12:50;;;;;;;5.97;4.88;;;;;;;;;;5090869;28;20027;-43
2021/03/05 11:15:19;;;;;;;12.40;6.72;;;;;;;;;;5092514;28;20054;-48
2021/03/05 11:17:44;;;;;;;13.35;6.95;;;;;;;;;;5092014;28;20047;-54
2021/03/05 11:20:10;;;;;;;9.57;6.85;;;;;;;;;;5091521;28;20044;-43
2021/03/05 11:22:35;;;;;;;6.28;5.07;;;;;;;;;;5091724;28;20106;-48
2021/03/05 11:25:01;;;;;;;8.15;5.43;;;;;;;;;;5092203;28;20032;-51
2021/03/05 11:27:26;;;;;;;4.53;4.13;;;;;;;;;;5091993;28;20073;-44
2021/03/05 11:29:51;;;;;;;18.13;5.05;;;;;;;;;;5091809;28;20028;-44
2021/03/05 11:32:17;;;;;;;12.70;5.43;;;;;;;;;;5091371;28;20039;-45
2021/03/05 11:34:43;;;;;;;12.10;5.47;;;;;;;;;;5091163;28;20028;-44
2021/03/05 11:37:08;;;;;;;7.15;5.70;;;;;;;;;;5090263;28;20035;-45
2021/03/05 11:39:33;;;;;;;6.20;3.75;;;;;;;;;;5091322;28;20024;-47
2021/03/05 11:41:59;;;;;;;10.55;6.22;;;;;;;;;;5090551;28;20415;-45
2021/03/05 11:44:24;;;;;;;5.13;3.78;;;;;;;;;;5091136;28;20024;-45
2021/03/05 11:46:49;;;;;;;8.23;5.80;;;;;;;;;;5091099;28;20039;-44
2021/03/05 11:49:15;;;;;;;6.18;4.68;;;;;;;;;;5091249;28;20073;-51
2021/03/05 11:51:42;;;;;;;11.30;5.95;;;;;;;;;;5089863;28;20028;-46
2021/03/05 11:54:08;;;;;;;12.18;4.35;;;;;;;;;;5091059;28;20039;-49
2021/03/05 11:56:33;;;;;;;8.55;5.47;;;;;;;;;;5091073;28;20033;-50
2021/03/05 11:59:01;;;;;;;13.00;6.15;;;;;;;;;;5091212;28;20054;-44
2021/03/05 12:01:26;;;;;;;9.60;7.05;;;;;;;;;;5091189;28;20024;-44
2021/03/05 12:03:52;;;;;;;12.60;7.53;;;;;;;;;;5091056;28;20445;-44
2021/03/05 12:06:17;;;;;;;6.47;5.18;;;;;;;;;;5090796;28;20132;-45
2021/03/05 12:08:42;;;;;;;7.35;5.63;;;;;;;;;;5090776;28;20024;-47
2021/03/05 12:11:07;;;;;;;9.18;6.05;;;;;;;;;;5089536;28;20050;-49
2021/03/05 12:13:33;;;;;;;13.27;5.95;;;;;;;;;;5090801;28;20377;-48
2021/03/05 12:15:58;;;;;;;17.50;6.25;;;;;;;;;;5090745;28;20039;-47
2021/03/05 12:18:23;;;;;;;8.38;5.93;;;;;;;;;;5090398;28;20398;-48
2021/03/05 12:20:49;;;;;;;19.70;8.48;;;;;;;;;;5090306;28;20059;-46
2021/03/05 12:23:14;;;;;;;8.43;6.88;;;;;;;;;;5090198;28;20020;-44
2021/03/05 12:25:39;;;;;;;13.93;8.07;;;;;;;;;;5090701;28;20036;-46
2021/03/05 12:28:05;;;;;;;8.80;6.43;;;;;;;;;;5090139;28;20093;-48
2021/03/05 12:30:30;;;;;;;14.43;8.40;;;;;;;;;;5090694;28;20077;-47
2021/03/05 12:32:56;;;;;;;9.35;6.00;;;;;;;;;;5090377;28;20474;-43
2021/03/05 12:35:21;;;;;;;10.43;7.45;;;;;;;;;;5090764;28;20040;-47
2021/03/05 12:37:46;;;;;;;10.60;7.85;;;;;;;;;;5090659;28;20103;-44
2021/03/05 12:40:13;;;;;;;13.23;8.50;;;;;;;;;;5090381;28;20362;-43
2021/03/05 12:42:39;;;;;;;8.93;5.20;;;;;;;;;;5090283;28;20028;-44
2021/03/05 12:45:06;;;;;;;11.55;6.80;;;;;;;;;;5089643;28;20035;-45
2021/03/05 12:47:31;;;;;;;13.07;6.18;;;;;;;;;;5090301;28;20066;-48
2021/03/05 12:49:57;;;;;;;26.13;16.13;;;;;;;;;;5090169;28;20063;-43
2021/03/05 12:52:22;;;;;;;15.27;10.90;;;;;;;;;;5090236;28;20067;-44
2021/03/05 12:54:47;;;;;;;10.88;9.13;;;;;;;;;;5090135;28;20035;-50
2021/03/05 12:57:13;;;;;;;8.02;6.53;;;;;;;;;;5090042;28;20186;-44
2021/03/05 12:59:38;;;;;;;11.30;10.15;;;;;;;;;;5090098;28;20031;-46
2021/03/05 13:02:03;;;;;;;11.75;7.50;;;;;;;;;;5089443;28;20028;-49
2021/03/05 13:04:29;;;;;;;14.15;5.68;;;;;;;;;;5089796;28;20036;-48
2021/03/05 13:06:54;;;;;;;26.13;12.57;;;;;;;;;;5089255;28;20032;-46
2021/03/05 13:09:19;;;;;;;22.60;9.23;;;;;;;;;;5089287;28;20028;-48
2021/03/05 13:11:44;;;;;;;24.73;16.33;;;;;;;;;;5089457;28;20078;-56
2021/03/05 13:14:10;;;;;;;18.48;14.50;;;;;;;;;;5089342;28;20485;-46
2021/03/05 13:16:35;;;;;;;39.20;34.60;;;;;;;;;;5089513;28;20028;-44
2021/03/05 13:19:00;;;;;;;21.75;17.75;;;;;;;;;;5089459;28;20051;-53
2021/03/05 13:21:26;;;;;;;16.40;12.85;;;;;;;;;;5089897;28;20028;-49
2021/03/05 13:23:51;;;;;;;10.73;9.48;;;;;;;;;;5089795;28;20648;-49
2021/03/05 13:26:16;;;;;;;8.02;7.22;;;;;;;;;;5089783;28;20111;-50
2021/03/05 13:28:43;;;;;;;4.97;4.38;;;;;;;;;;5089639;28;20053;-52
2021/03/05 13:31:09;;;;;;;12.63;7.97;;;;;;;;;;5089657;28;20039;-51
2021/03/05 13:33:34;;;;;;;9.32;7.32;;;;;;;;;;5088462;28;20032;-50
2021/03/05 13:35:59;;;;;;;10.68;5.80;;;;;;;;;;5086790;28;20072;-48
2021/03/05 13:38:26;;;;;;;8.52;6.53;;;;;;;;;;5089265;28;20139;-46
2021/03/05 13:40:51;;;;;;;11.70;7.40;;;;;;;;;;5090079;28;20024;-46
2021/03/05 13:43:16;;;;;;;9.95;6.07;;;;;;;;;;5088840;28;20021;-49
2021/03/05 13:45:42;;;;;;;11.40;8.57;;;;;;;;;;5089522;28;20028;-49
2021/03/05 13:48:07;;;;;;;9.35;6.15;;;;;;;;;;5089096;28;20042;-46
2021/03/05 13:50:33;;;;;;;7.18;5.15;;;;;;;;;;5089233;28;20469;-46
2021/03/05 13:52:58;;;;;;;11.88;5.53;;;;;;;;;;5089370;28;20053;-52
2021/03/05 13:55:23;;;;;;;10.15;6.13;;;;;;;;;;5089092;28;20032;-47
2021/03/05 13:57:48;;;;;;;10.85;7.38;;;;;;;;;;5089323;28;20473;-50
2021/03/05 14:00:14;;;;;;;10.95;6.95;;;;;;;;;;5089359;28;20024;-50
2021/03/05 14:02:39;;;;;;;13.30;4.78;;;;;;;;;;5087647;28;20688;-48
2021/03/05 14:05:05;;;;;;;5.78;4.50;;;;;;;;;;5088909;28;20034;-46
2021/03/05 14:07:30;;;;;;;8.68;6.43;;;;;;;;;;5087415;28;20032;-49
2021/03/05 14:09:56;;;;;;;8.75;5.88;;;;;;;;;;5089064;28;20058;-47
2021/03/05 14:12:22;;;;;;;18.70;7.22;;;;;;;;;;5088515;28;20028;-51
2021/03/05 14:14:47;;;;;;;8.60;5.07;;;;;;;;;;5089330;28;20066;-49
2021/03/05 14:17:12;;;;;;;12.88;7.32;;;;;;;;;;5088949;28;20032;-45
2021/03/05 14:19:38;;;;;;;6.97;5.97;;;;;;;;;;5088871;28;20126;-47
2021/03/05 14:22:03;;;;;;;11.45;6.10;;;;;;;;;;5088865;28;20499;-50
2021/03/05 14:24:28;;;;;;;15.25;5.10;;;;;;;;;;5089051;28;20103;-49